Time;durP1;ratioP1;P1;durP2;ratioP2;P2;SDS_P1;SDS_P2;PMS_P1;PMS_P2;Temp;Humidity;BMP_temperature;BMP_pressure;BME280_temperature;BME280_humidity;BME280_pressure;Samples;Min_cycle;Max_cycle;Signal;HPM_P1;HPM_P2
2022/02/15 00:00:12;;;;;;;3.30;1.35;;;;;;;;;;5020366;28;20132;-77
2022/02/15 00:02:37;;;;;;;3.72;1.25;;;;;;;;;;5020107;28;20045;-76
2022/02/15 00:05:03;;;;;;;3.90;1.63;;;;;;;;;;5036950;28;20037;-77
2022/02/15 00:07:28;;;;;;;4.10;1.63;;;;;;;;;;5017160;28;20048;-77
2022/02/15 00:09:54;;;;;;;3.05;1.40;;;;;;;;;;5017021;28;20064;-77
2022/02/15 00:12:19;;;;;;;3.58;1.23;;;;;;;;;;4999562;28;20049;-76
2022/02/15 00:14:44;;;;;;;4.50;1.30;;;;;;;;;;5016425;28;20041;-76
2022/02/15 00:17:10;;;;;;;3.75;1.88;;;;;;;;;;5011311;28;20166;-76
2022/02/15 00:19:35;;;;;;;2.47;1.20;;;;;;;;;;4985274;28;20463;-76
2022/02/15 00:22:01;;;;;;;4.45;1.13;;;;;;;;;;5001634;28;20424;-76
2022/02/15 00:24:26;;;;;;;3.72;1.38;;;;;;;;;;5016722;28;20484;-76
2022/02/15 00:26:51;;;;;;;2.55;1.10;;;;;;;;;;5007416;28;20498;-76
2022/02/15 00:29:17;;;;;;;5.80;1.30;;;;;;;;;;4992698;28;20045;-76
2022/02/15 00:31:42;;;;;;;2.60;0.93;;;;;;;;;;5016910;28;20045;-76
2022/02/15 00:34:08;;;;;;;2.88;1.20;;;;;;;;;;5003281;28;20060;-76
2022/02/15 00:36:33;;;;;;;3.58;1.30;;;;;;;;;;5000628;28;20440;-76
2022/02/15 00:38:59;;;;;;;5.70;1.70;;;;;;;;;;5019069;28;20415;-76
2022/02/15 00:41:24;;;;;;;3.38;1.15;;;;;;;;;;5015890;28;20108;-76
2022/02/15 00:43:50;;;;;;;3.50;1.60;;;;;;;;;;5007397;28;20146;-76
2022/02/15 00:46:15;;;;;;;2.72;1.08;;;;;;;;;;5030980;28;20458;-76
2022/02/15 00:48:41;;;;;;;3.95;1.42;;;;;;;;;;5012938;28;20033;-76
2022/02/15 00:51:06;;;;;;;3.97;2.00;;;;;;;;;;5015681;28;20045;-76
2022/02/15 00:53:32;;;;;;;3.63;1.20;;;;;;;;;;5007633;28;20067;-76
2022/02/15 00:55:58;;;;;;;2.60;1.13;;;;;;;;;;4999050;28;20412;-76
2022/02/15 00:58:23;;;;;;;3.80;1.85;;;;;;;;;;5012243;28;20041;-76
2022/02/15 01:00:49;;;;;;;3.65;1.33;;;;;;;;;;4986462;28;20042;-76
2022/02/15 01:03:15;;;;;;;2.05;0.93;;;;;;;;;;5015867;28;20041;-76
2022/02/15 01:05:40;;;;;;;2.92;1.00;;;;;;;;;;4983436;28;20045;-76
2022/02/15 01:08:06;;;;;;;3.33;1.40;;;;;;;;;;5019221;28;20050;-76
2022/02/15 01:10:32;;;;;;;3.83;1.33;;;;;;;;;;5014296;28;20142;-76
2022/02/15 01:12:58;;;;;;;3.55;1.15;;;;;;;;;;5007801;28;20045;-76
2022/02/15 01:15:24;;;;;;;4.70;1.52;;;;;;;;;;4999617;28;20057;-76
2022/02/15 01:17:49;;;;;;;4.65;1.75;;;;;;;;;;5025526;28;20455;-76
2022/02/15 01:20:15;;;;;;;2.97;1.10;;;;;;;;;;5010936;28;20043;-76
2022/02/15 01:22:40;;;;;;;2.72;1.08;;;;;;;;;;5011851;28;20038;-76
2022/02/15 01:25:06;;;;;;;2.30;1.38;;;;;;;;;;5009108;28;20044;-76
2022/02/15 01:27:31;;;;;;;3.45;1.50;;;;;;;;;;5000451;28;20029;-76
2022/02/15 01:29:57;;;;;;;4.78;1.20;;;;;;;;;;5017519;28;20041;-76
2022/02/15 01:32:22;;;;;;;2.95;1.05;;;;;;;;;;5001379;28;20037;-76
2022/02/15 01:34:48;;;;;;;2.95;0.85;;;;;;;;;;5014895;28;20550;-76
2022/02/15 01:37:13;;;;;;;3.17;1.27;;;;;;;;;;5005658;28;20037;-76
2022/02/15 01:39:39;;;;;;;4.30;1.38;;;;;;;;;;5011109;28;20048;-76
2022/02/15 01:42:04;;;;;;;3.22;1.63;;;;;;;;;;5041407;28;20045;-76
2022/02/15 01:44:30;;;;;;;2.28;1.20;;;;;;;;;;5016891;28;20049;-76
2022/02/15 01:46:56;;;;;;;3.20;0.93;;;;;;;;;;5036378;28;20040;-76
2022/02/15 01:49:22;;;;;;;3.05;1.35;;;;;;;;;;5050547;28;20530;-76
2022/02/15 01:51:47;;;;;;;3.67;1.02;;;;;;;;;;5034980;28;20052;-76
2022/02/15 01:54:13;;;;;;;3.20;1.42;;;;;;;;;;5016111;28;20045;-76
2022/02/15 01:56:38;;;;;;;2.90;1.10;;;;;;;;;;5002619;28;20038;-76
2022/02/15 01:59:04;;;;;;;2.92;1.05;;;;;;;;;;5016652;28;20068;-76
2022/02/15 02:01:29;;;;;;;3.33;1.48;;;;;;;;;;4989735;28;20389;-76
2022/02/15 02:03:54;;;;;;;2.78;1.35;;;;;;;;;;5002720;28;20443;-76
2022/02/15 02:06:20;;;;;;;3.78;1.35;;;;;;;;;;5027477;28;20037;-77
2022/02/15 02:08:45;;;;;;;3.88;1.17;;;;;;;;;;5000252;28;20052;-76
2022/02/15 02:11:11;;;;;;;2.72;1.10;;;;;;;;;;5013727;28;20393;-77
2022/02/15 02:13:36;;;;;;;3.72;1.00;;;;;;;;;;5023136;28;20060;-76
2022/02/15 02:16:02;;;;;;;3.28;1.20;;;;;;;;;;5014524;28;20080;-76
2022/02/15 02:18:28;;;;;;;2.28;0.95;;;;;;;;;;5018937;28;20040;-76
2022/02/15 02:20:53;;;;;;;3.47;0.82;;;;;;;;;;5010214;28;20057;-76
2022/02/15 02:23:20;;;;;;;5.93;1.73;;;;;;;;;;4987053;28;20060;-76
2022/02/15 02:25:45;;;;;;;3.10;1.20;;;;;;;;;;5017559;28;20045;-76
2022/02/15 02:28:11;;;;;;;3.00;1.45;;;;;;;;;;5004875;28;20092;-76
2022/02/15 02:30:36;;;;;;;3.50;1.35;;;;;;;;;;5011386;28;20053;-76
2022/02/15 02:33:02;;;;;;;2.85;0.98;;;;;;;;;;5015753;28;20087;-76
2022/02/15 02:35:28;;;;;;;2.90;1.08;;;;;;;;;;5014359;28;20457;-76
2022/02/15 02:37:54;;;;;;;4.13;1.65;;;;;;;;;;5013752;28;20042;-76
2022/02/15 02:40:19;;;;;;;3.15;1.20;;;;;;;;;;4978588;28;20038;-76
2022/02/15 02:42:46;;;;;;;3.28;1.13;;;;;;;;;;5007846;28;20045;-76
2022/02/15 02:45:13;;;;;;;5.13;1.42;;;;;;;;;;5020475;28;20044;-76
2022/02/15 02:47:45;;;;;;;4.28;1.38;;;;;;;;;;4999881;28;20512;-76
2022/02/15 02:50:11;;;;;;;4.30;1.20;;;;;;;;;;5018382;28;20038;-76
2022/02/15 02:52:37;;;;;;;4.03;1.77;;;;;;;;;;4999916;28;20037;-76
2022/02/15 02:55:02;;;;;;;3.63;1.38;;;;;;;;;;4995338;28;20108;-76
2022/02/15 02:57:28;;;;;;;3.67;1.20;;;;;;;;;;5013578;28;20037;-76
2022/02/15 02:59:53;;;;;;;2.97;1.10;;;;;;;;;;5017009;28;20037;-76
2022/02/15 03:02:19;;;;;;;3.28;1.60;;;;;;;;;;5018465;28;20071;-76
2022/02/15 03:04:44;;;;;;;2.88;1.42;;;;;;;;;;5013673;28;20052;-76
2022/02/15 03:07:10;;;;;;;3.30;1.65;;;;;;;;;;5001882;28;20049;-76
2022/02/15 03:09:35;;;;;;;2.72;1.00;;;;;;;;;;5022964;28;20037;-76
2022/02/15 03:12:01;;;;;;;4.05;1.20;;;;;;;;;;5012709;28;20033;-76
2022/02/15 03:14:26;;;;;;;2.42;0.95;;;;;;;;;;5014738;28;20160;-76
2022/02/15 03:16:52;;;;;;;3.92;1.40;;;;;;;;;;5013878;28;20033;-76
2022/02/15 03:19:17;;;;;;;3.10;1.23;;;;;;;;;;5027398;28;20063;-76
2022/02/15 03:21:43;;;;;;;2.72;1.05;;;;;;;;;;5003712;28;20388;-76
2022/02/15 03:24:08;;;;;;;4.00;1.52;;;;;;;;;;4994736;28;20042;-76
2022/02/15 03:26:34;;;;;;;3.60;1.20;;;;;;;;;;5018811;28;20091;-76
2022/02/15 03:28:59;;;;;;;3.80;1.45;;;;;;;;;;5006228;28;20044;-76
2022/02/15 03:31:25;;;;;;;2.83;1.13;;;;;;;;;;5012895;28;20029;-76
2022/02/15 03:33:50;;;;;;;4.18;1.65;;;;;;;;;;5013209;28;20042;-76
2022/02/15 03:36:16;;;;;;;2.03;1.20;;;;;;;;;;5022484;28;20407;-77
2022/02/15 03:38:42;;;;;;;3.20;1.30;;;;;;;;;;5013076;28;20029;-76
2022/02/15 03:43:51;;;;;;;3.45;1.02;;;;;;;;;;5006113;28;20499;-76
2022/02/15 03:46:17;;;;;;;2.45;1.20;;;;;;;;;;5033667;28;20067;-76
2022/02/15 03:48:42;;;;;;;2.83;1.38;;;;;;;;;;5036976;28;20045;-76
2022/02/15 03:51:08;;;;;;;2.92;1.13;;;;;;;;;;5016144;28;20120;-76
2022/02/15 03:53:34;;;;;;;2.60;1.33;;;;;;;;;;4998724;28;20045;-76
2022/02/15 03:55:59;;;;;;;3.15;1.17;;;;;;;;;;4995775;28;20104;-76
2022/02/15 03:58:25;;;;;;;2.80;1.20;;;;;;;;;;4998888;28;20468;-76
2022/02/15 04:00:50;;;;;;;2.45;0.90;;;;;;;;;;5013498;28;20061;-76
2022/02/15 04:03:16;;;;;;;2.85;1.13;;;;;;;;;;4990870;28;20045;-76
2022/02/15 04:05:41;;;;;;;2.03;1.35;;;;;;;;;;5018720;28;20401;-76
2022/02/15 04:08:07;;;;;;;3.00;1.40;;;;;;;;;;4996928;28;20049;-77
2022/02/15 04:10:32;;;;;;;2.83;1.27;;;;;;;;;;5008871;28;20041;-76
2022/02/15 04:12:58;;;;;;;3.88;1.20;;;;;;;;;;5011859;28;20468;-77
2022/02/15 04:15:23;;;;;;;2.90;1.33;;;;;;;;;;5015491;28;20076;-77
2022/02/15 04:17:49;;;;;;;2.63;1.05;;;;;;;;;;5016382;28;20418;-77
2022/02/15 04:20:14;;;;;;;2.95;1.17;;;;;;;;;;5027561;28;20598;-77
2022/02/15 04:22:40;;;;;;;2.58;1.10;;;;;;;;;;5016487;28;20119;-77
2022/02/15 04:25:06;;;;;;;4.60;1.40;;;;;;;;;;4983628;28;20045;-76
2022/02/15 04:27:31;;;;;;;2.88;1.40;;;;;;;;;;4996743;28;20124;-77
2022/02/15 04:29:57;;;;;;;4.18;1.45;;;;;;;;;;5029745;28;20518;-77
2022/02/15 04:32:22;;;;;;;3.67;1.13;;;;;;;;;;5034562;28;20041;-76
2022/02/15 04:34:48;;;;;;;2.97;1.25;;;;;;;;;;5000298;28;20045;-76
2022/02/15 04:37:14;;;;;;;3.42;0.90;;;;;;;;;;5000887;28;20415;-76
2022/02/15 04:39:39;;;;;;;3.90;1.27;;;;;;;;;;4984058;28;20029;-76
2022/02/15 04:42:05;;;;;;;2.22;0.90;;;;;;;;;;5016004;28;20041;-76
2022/02/15 04:44:30;;;;;;;3.05;1.23;;;;;;;;;;5019579;28;20051;-76
2022/02/15 04:46:56;;;;;;;2.97;1.10;;;;;;;;;;5019355;28;20515;-76
2022/02/15 04:49:21;;;;;;;3.08;1.10;;;;;;;;;;4992058;28;20033;-76
2022/02/15 04:51:47;;;;;;;2.67;1.27;;;;;;;;;;4995147;28;20055;-76
2022/02/15 04:54:13;;;;;;;3.45;1.10;;;;;;;;;;5000136;28;20057;-76
2022/02/15 04:56:38;;;;;;;2.85;0.90;;;;;;;;;;5006584;28;20037;-76
2022/02/15 04:59:04;;;;;;;3.63;1.10;;;;;;;;;;5010177;28;20036;-76
2022/02/15 05:01:29;;;;;;;4.40;1.48;;;;;;;;;;5033753;28;20071;-76
2022/02/15 05:03:55;;;;;;;3.03;1.25;;;;;;;;;;5018864;28;20446;-76
2022/02/15 05:06:20;;;;;;;2.70;1.27;;;;;;;;;;5006786;28;20419;-76
2022/02/15 05:08:46;;;;;;;4.05;1.10;;;;;;;;;;5033757;28;20495;-76
2022/02/15 05:11:12;;;;;;;4.15;1.67;;;;;;;;;;5008524;28;20095;-76
2022/02/15 05:13:38;;;;;;;3.22;1.00;;;;;;;;;;5019396;28;20052;-76
2022/02/15 05:16:03;;;;;;;3.13;1.38;;;;;;;;;;5011180;28;20084;-76
2022/02/15 05:18:29;;;;;;;3.70;1.15;;;;;;;;;;5026203;28;20033;-76
2022/02/15 05:20:54;;;;;;;2.10;0.90;;;;;;;;;;5035064;28;20037;-76
2022/02/15 05:23:20;;;;;;;3.33;1.13;;;;;;;;;;5011878;28;20384;-76
2022/02/15 05:25:45;;;;;;;2.03;1.10;;;;;;;;;;5005567;28;20112;-76
2022/02/15 05:28:10;;;;;;;4.45;1.30;;;;;;;;;;5018541;28;20045;-76
2022/02/15 05:30:36;;;;;;;2.80;1.20;;;;;;;;;;5009827;28;20389;-76
2022/02/15 05:33:01;;;;;;;4.15;1.55;;;;;;;;;;5012135;28;20037;-76
2022/02/15 05:35:27;;;;;;;2.92;1.20;;;;;;;;;;5016620;28;20037;-76
2022/02/15 05:37:52;;;;;;;2.65;1.27;;;;;;;;;;4989927;28;20045;-76
2022/02/15 05:40:18;;;;;;;2.17;1.10;;;;;;;;;;5016336;28;20495;-76
2022/02/15 05:42:43;;;;;;;5.57;1.65;;;;;;;;;;5023563;28;20037;-76
2022/02/15 05:45:09;;;;;;;2.97;1.20;;;;;;;;;;5022023;28;20040;-76
2022/02/15 05:47:35;;;;;;;2.88;1.40;;;;;;;;;;5023298;28;20030;-76
2022/02/15 05:52:45;;;;;;;4.68;1.52;;;;;;;;;;5007151;28;20496;-81
2022/02/15 05:55:11;;;;;;;3.25;1.33;;;;;;;;;;4999028;28;20038;-76
2022/02/15 05:57:36;;;;;;;2.95;1.13;;;;;;;;;;4998587;28;20063;-76
2022/02/15 06:00:03;;;;;;;3.58;1.00;;;;;;;;;;5016920;28;20033;-76
2022/02/15 06:02:29;;;;;;;3.03;1.42;;;;;;;;;;5018426;28;20063;-76
2022/02/15 06:04:57;;;;;;;3.85;1.35;;;;;;;;;;5017758;28;20051;-75
2022/02/15 06:07:22;;;;;;;4.40;1.27;;;;;;;;;;5014058;28;20132;-76
2022/02/15 06:09:48;;;;;;;4.10;1.42;;;;;;;;;;5002027;28;20415;-76
2022/02/15 06:12:13;;;;;;;6.10;1.85;;;;;;;;;;5014582;28;20045;-76
2022/02/15 06:14:39;;;;;;;4.13;1.40;;;;;;;;;;5014955;28;20444;-76
2022/02/15 06:17:04;;;;;;;4.53;1.50;;;;;;;;;;5014654;28;20029;-76
2022/02/15 06:19:30;;;;;;;3.28;1.23;;;;;;;;;;5014709;28;20041;-76
2022/02/15 06:21:55;;;;;;;3.42;1.17;;;;;;;;;;5015850;28;20041;-75
2022/02/15 06:24:23;;;;;;;3.78;1.33;;;;;;;;;;5010992;28;20036;-76
2022/02/15 06:26:49;;;;;;;2.70;1.38;;;;;;;;;;5038518;28;20506;-75
2022/02/15 06:29:14;;;;;;;5.40;1.40;;;;;;;;;;5038193;28;20056;-76
2022/02/15 06:31:40;;;;;;;7.55;1.83;;;;;;;;;;5031084;28;20029;-76
2022/02/15 06:34:05;;;;;;;5.47;1.52;;;;;;;;;;5034030;28;20040;-76
2022/02/15 06:36:31;;;;;;;9.40;2.08;;;;;;;;;;5005341;28;20045;-78
2022/02/15 06:38:57;;;;;;;8.50;2.67;;;;;;;;;;5011977;28;20037;-78
2022/02/15 06:41:23;;;;;;;8.73;3.22;;;;;;;;;;5006850;28;20033;-78
2022/02/15 06:43:48;;;;;;;6.10;2.75;;;;;;;;;;4986467;28;20057;-78
2022/02/15 06:46:13;;;;;;;7.15;3.17;;;;;;;;;;4997468;28;20041;-78
2022/02/15 06:48:39;;;;;;;7.50;2.38;;;;;;;;;;5005914;28;20041;-78
2022/02/15 06:51:04;;;;;;;7.30;2.50;;;;;;;;;;5012973;28;20639;-78
2022/02/15 06:53:30;;;;;;;7.95;3.13;;;;;;;;;;5028926;28;20126;-78
2022/02/15 06:55:55;;;;;;;5.88;2.25;;;;;;;;;;5011467;28;20041;-78
2022/02/15 06:58:22;;;;;;;8.35;2.15;;;;;;;;;;5000405;28;20412;-78
2022/02/15 07:00:47;;;;;;;7.43;2.53;;;;;;;;;;5033729;28;20040;-78
2022/02/15 07:03:13;;;;;;;11.70;2.80;;;;;;;;;;5017640;28;20048;-78
2022/02/15 07:05:39;;;;;;;6.22;2.05;;;;;;;;;;5000596;28;20037;-78
2022/02/15 07:08:05;;;;;;;9.30;3.03;;;;;;;;;;5000822;28;20048;-78
2022/02/15 07:10:32;;;;;;;9.30;2.60;;;;;;;;;;4997007;28;20033;-78
2022/02/15 07:12:58;;;;;;;7.13;2.47;;;;;;;;;;4997713;28;20550;-78
2022/02/15 07:15:24;;;;;;;6.57;1.83;;;;;;;;;;5002334;28;20025;-78
2022/02/15 07:17:49;;;;;;;7.22;2.45;;;;;;;;;;4997513;28;20484;-78
2022/02/15 07:20:15;;;;;;;10.18;2.47;;;;;;;;;;4997382;28;20078;-78
2022/02/15 07:22:40;;;;;;;8.20;2.28;;;;;;;;;;4997747;28;20056;-79
2022/02/15 07:25:07;;;;;;;6.05;2.53;;;;;;;;;;5013749;28;20041;-78
2022/02/15 07:27:32;;;;;;;8.18;2.13;;;;;;;;;;4997447;28;20049;-78
2022/02/15 07:29:57;;;;;;;6.40;2.05;;;;;;;;;;5013318;28;20064;-78
2022/02/15 07:32:26;;;;;;;5.72;2.08;;;;;;;;;;5013864;28;20407;-78
2022/02/15 07:34:52;;;;;;;6.13;2.60;;;;;;;;;;4999281;28;20048;-78
2022/02/15 07:37:17;;;;;;;6.45;2.08;;;;;;;;;;5016348;28;20047;-78
2022/02/15 07:39:43;;;;;;;6.35;2.13;;;;;;;;;;5000598;28;20045;-78
2022/02/15 07:42:08;;;;;;;4.15;1.40;;;;;;;;;;5000002;28;20123;-78
2022/02/15 07:44:34;;;;;;;5.53;1.95;;;;;;;;;;5000648;28;20083;-78
2022/02/15 07:46:59;;;;;;;4.03;1.45;;;;;;;;;;5016819;28;20037;-79
2022/02/15 07:49:25;;;;;;;4.43;1.52;;;;;;;;;;5000250;28;20454;-79
2022/02/15 07:51:51;;;;;;;5.70;1.85;;;;;;;;;;5017129;28;20037;-78
2022/02/15 07:54:18;;;;;;;6.10;2.10;;;;;;;;;;5016897;28;20033;-78
2022/02/15 07:56:45;;;;;;;8.95;3.03;;;;;;;;;;5017193;28;20436;-78
2022/02/15 07:59:10;;;;;;;4.53;1.55;;;;;;;;;;5016440;28;20079;-78
2022/02/15 08:01:35;;;;;;;7.35;2.28;;;;;;;;;;4984224;28;20492;-78
2022/02/15 08:04:01;;;;;;;8.35;4.45;;;;;;;;;;5018998;28;20033;-79
2022/02/15 08:06:27;;;;;;;15.77;10.02;;;;;;;;;;4987958;28;20356;-78
2022/02/15 08:08:53;;;;;;;23.17;16.13;;;;;;;;;;5003794;28;20115;-78
2022/02/15 08:11:19;;;;;;;29.83;19.67;;;;;;;;;;5054750;28;20114;-78
2022/02/15 08:13:44;;;;;;;34.72;23.35;;;;;;;;;;4987435;28;20519;-78
2022/02/15 08:16:09;;;;;;;36.45;24.92;;;;;;;;;;5010610;28;20048;-79
2022/02/15 08:18:40;;;;;;;37.97;26.35;;;;;;;;;;5001000;28;20079;-78
2022/02/15 08:21:05;;;;;;;36.58;25.25;;;;;;;;;;5001961;28;20123;-78
2022/02/15 08:23:31;;;;;;;37.42;26.27;;;;;;;;;;4984567;28;20064;-78
2022/02/15 08:25:56;;;;;;;41.55;26.45;;;;;;;;;;5000545;28;20096;-78
2022/02/15 08:28:22;;;;;;;38.38;25.70;;;;;;;;;;4984157;28;20037;-78
2022/02/15 08:30:48;;;;;;;35.88;24.77;;;;;;;;;;5000747;28;20528;-78
2022/02/15 08:33:13;;;;;;;35.75;24.40;;;;;;;;;;4984226;28;20045;-78
2022/02/15 08:35:39;;;;;;;35.72;24.10;;;;;;;;;;4984293;28;20037;-78
2022/02/15 08:38:04;;;;;;;34.80;24.17;;;;;;;;;;4984013;28;20116;-78
2022/02/15 08:40:30;;;;;;;31.88;21.98;;;;;;;;;;4999918;28;20029;-78
2022/02/15 08:42:55;;;;;;;32.80;21.92;;;;;;;;;;4999518;28;20053;-78
2022/02/15 08:45:22;;;;;;;35.42;22.65;;;;;;;;;;4983988;28;20040;-78
2022/02/15 08:47:48;;;;;;;34.25;22.40;;;;;;;;;;4984462;28;20144;-78
2022/02/15 08:50:13;;;;;;;30.88;20.50;;;;;;;;;;4983992;28;20427;-78
2022/02/15 08:52:39;;;;;;;31.02;20.77;;;;;;;;;;5000064;28;20044;-78
2022/02/15 08:55:08;;;;;;;28.27;19.15;;;;;;;;;;4983893;28;20034;-78
2022/02/15 08:57:34;;;;;;;28.10;19.95;;;;;;;;;;4999924;28;20388;-78
2022/02/15 08:59:59;;;;;;;26.67;18.65;;;;;;;;;;5001583;28;20048;-78
2022/02/15 09:02:25;;;;;;;27.98;18.17;;;;;;;;;;5003562;28;20036;-78
2022/02/15 09:04:50;;;;;;;25.98;17.17;;;;;;;;;;5036208;28;20111;-75
2022/02/15 09:07:16;;;;;;;32.15;21.67;;;;;;;;;;5035895;28;20041;-75
2022/02/15 09:09:41;;;;;;;31.65;21.92;;;;;;;;;;5018509;28;20033;-75
2022/02/15 09:12:07;;;;;;;29.17;21.38;;;;;;;;;;5002744;28;20106;-75
2022/02/15 09:14:33;;;;;;;33.25;22.65;;;;;;;;;;5019050;28;20073;-75
2022/02/15 09:16:59;;;;;;;32.53;23.13;;;;;;;;;;4999769;28;20041;-75
2022/02/15 09:19:28;;;;;;;30.58;21.75;;;;;;;;;;5016220;28;20068;-76
2022/02/15 09:21:54;;;;;;;31.50;21.50;;;;;;;;;;5016433;28;20116;-76
2022/02/15 09:24:20;;;;;;;30.55;20.95;;;;;;;;;;5031813;28;20116;-76
2022/02/15 09:26:45;;;;;;;25.70;20.13;;;;;;;;;;5016158;28;20120;-75
2022/02/15 09:29:11;;;;;;;27.70;18.65;;;;;;;;;;4999638;28;20037;-76
2022/02/15 09:31:39;;;;;;;26.73;18.15;;;;;;;;;;4999626;28;20108;-76
2022/02/15 09:34:05;;;;;;;26.40;18.38;;;;;;;;;;5000059;28;20048;-76
2022/02/15 09:36:31;;;;;;;24.60;17.92;;;;;;;;;;4999438;28;20503;-75
2022/02/15 09:38:56;;;;;;;23.25;17.63;;;;;;;;;;4998723;28;20038;-76
2022/02/15 09:41:22;;;;;;;24.38;17.58;;;;;;;;;;4982930;28;20068;-76
2022/02/15 09:43:47;;;;;;;25.70;17.00;;;;;;;;;;4999162;28;20045;-76
2022/02/15 09:46:14;;;;;;;24.33;15.50;;;;;;;;;;4999127;28;20053;-76
2022/02/15 09:48:39;;;;;;;25.00;16.38;;;;;;;;;;5015247;28;20034;-75
2022/02/15 09:51:05;;;;;;;21.88;15.25;;;;;;;;;;4982662;28;20492;-76
2022/02/15 09:53:31;;;;;;;23.70;14.68;;;;;;;;;;5015018;28;20124;-76
2022/02/15 09:55:56;;;;;;;22.35;14.55;;;;;;;;;;5015213;28;20044;-76
2022/02/15 09:58:22;;;;;;;22.45;13.88;;;;;;;;;;5018669;28;20029;-76
2022/02/15 10:00:48;;;;;;;20.13;13.85;;;;;;;;;;5002314;28;20159;-76
2022/02/15 10:03:15;;;;;;;20.25;14.23;;;;;;;;;;5018773;28;20083;-75
2022/02/15 10:05:40;;;;;;;18.27;13.45;;;;;;;;;;5018309;28;20048;-75
2022/02/15 10:08:06;;;;;;;17.60;12.73;;;;;;;;;;5017993;28;20457;-75
2022/02/15 10:10:32;;;;;;;16.45;12.07;;;;;;;;;;5001544;28;20419;-75
2022/02/15 10:13:06;;;;;;;17.40;11.73;;;;;;;;;;5001793;28;20052;-75
2022/02/15 10:15:36;;;;;;;16.27;11.60;;;;;;;;;;5016175;28;20493;-75
2022/02/15 10:18:05;;;;;;;15.43;10.68;;;;;;;;;;4999198;28;20038;-75
2022/02/15 10:20:32;;;;;;;16.88;11.00;;;;;;;;;;5014874;28;20037;-75
2022/02/15 10:23:16;;;;;;;15.48;10.35;;;;;;;;;;4982115;28;20041;-75
2022/02/15 10:25:42;;;;;;;15.85;10.23;;;;;;;;;;5032291;28;20043;-76
2022/02/15 10:28:16;;;;;;;14.10;9.25;;;;;;;;;;4981197;28;20860;-76
2022/02/15 10:30:43;;;;;;;14.73;8.45;;;;;;;;;;4998662;28;20072;-76
2022/02/15 10:33:08;;;;;;;16.33;9.52;;;;;;;;;;4982263;28;20084;-76
2022/02/15 10:35:34;;;;;;;13.70;9.00;;;;;;;;;;4998180;28;20041;-76
2022/02/15 10:38:00;;;;;;;11.90;8.07;;;;;;;;;;5016929;28;20500;-76
2022/02/15 10:40:25;;;;;;;11.95;7.57;;;;;;;;;;5017878;28;20072;-76
2022/02/15 10:42:54;;;;;;;12.75;8.50;;;;;;;;;;5017660;28;20093;-76
2022/02/15 10:45:19;;;;;;;11.27;8.18;;;;;;;;;;5017808;28;20035;-76
2022/02/15 10:47:46;;;;;;;11.15;7.45;;;;;;;;;;5017613;28;20040;-76
2022/02/15 10:50:13;;;;;;;12.40;7.57;;;;;;;;;;5001969;28;20040;-76
2022/02/15 10:52:39;;;;;;;10.65;6.32;;;;;;;;;;5001488;28;20047;-76
2022/02/15 10:55:05;;;;;;;11.32;6.60;;;;;;;;;;5017606;28;20033;-76
2022/02/15 10:57:30;;;;;;;9.07;6.30;;;;;;;;;;5017607;28;20499;-76
2022/02/15 10:59:57;;;;;;;8.75;6.35;;;;;;;;;;5051530;28;20036;-76
2022/02/15 11:02:25;;;;;;;8.18;5.40;;;;;;;;;;5037781;28;20036;-76
2022/02/15 11:04:51;;;;;;;10.23;6.10;;;;;;;;;;5037611;28;20524;-76
2022/02/15 11:07:17;;;;;;;7.85;5.35;;;;;;;;;;5036952;28;20060;-77
2022/02/15 11:10:05;;;;;;;8.63;5.40;;;;;;;;;;5036768;28;20071;-76
2022/02/15 11:12:37;;;;;;;9.50;5.35;;;;;;;;;;5056193;28;20147;-76
2022/02/15 11:15:04;;;;;;;9.02;5.75;;;;;;;;;;5037223;28;20107;-76
2022/02/15 11:17:31;;;;;;;7.85;4.45;;;;;;;;;;5017370;28;20410;-76
2022/02/15 11:20:07;;;;;;;6.85;4.15;;;;;;;;;;5017781;28;20040;-76
2022/02/15 11:22:42;;;;;;;7.50;5.00;;;;;;;;;;5018019;28;20040;-77
2022/02/15 11:25:08;;;;;;;7.95;4.88;;;;;;;;;;5016923;28;20064;-77
2022/02/15 11:27:33;;;;;;;9.00;4.28;;;;;;;;;;5017321;28;20115;-76
2022/02/15 11:30:00;;;;;;;7.95;4.13;;;;;;;;;;5017148;28;20029;-77
2022/02/15 11:32:42;;;;;;;7.72;4.32;;;;;;;;;;5017275;28;20091;-77
2022/02/15 11:35:11;;;;;;;;;;;;;;;;;;5019115;28;20033;-77
2022/02/15 11:37:37;;;;;;;7.68;3.97;;;;;;;;;;5033625;28;19916;-77
2022/02/15 11:40:11;;;;;;;7.03;3.72;;;;;;;;;;5021183;28;20041;-77
2022/02/15 11:42:50;;;;;;;6.68;3.63;;;;;;;;;;5021518;28;20037;-77
2022/02/15 11:45:26;;;;;;;7.03;3.08;;;;;;;;;;5037529;28;20041;-77
2022/02/15 11:47:51;;;;;;;8.13;3.55;;;;;;;;;;5037626;28;20403;-77
2022/02/15 11:50:17;;;;;;;5.97;3.20;;;;;;;;;;5020931;28;20209;-77
2022/02/15 11:52:43;;;;;;;5.80;3.08;;;;;;;;;;5021410;28;20132;-77
2022/02/15 11:55:16;;;;;;;5.03;2.85;;;;;;;;;;5020935;28;20076;-77
2022/02/15 11:57:42;;;;;;;;;;;;;;;;;;5037849;28;20025;-77
2022/02/15 12:00:08;;;;;;;6.05;3.00;;;;;;;;;;5056446;28;19909;-77
2022/02/15 12:02:34;;;;;;;5.75;2.60;;;;;;;;;;5040979;28;20036;-77
2022/02/15 12:05:00;;;;;;;6.38;3.05;;;;;;;;;;5024033;28;20037;-77
2022/02/15 12:07:26;;;;;;;4.60;2.35;;;;;;;;;;5023661;28;20461;-77
2022/02/15 12:09:54;;;;;;;5.72;2.75;;;;;;;;;;5040534;28;20058;-77
2022/02/15 12:12:20;;;;;;;4.45;2.28;;;;;;;;;;5039583;28;20094;-77
2022/02/15 12:14:54;;;;;;;4.30;2.20;;;;;;;;;;5040705;28;20028;-77
2022/02/15 12:17:26;;;;;;;4.03;2.17;;;;;;;;;;5020773;28;20040;-77
2022/02/15 12:19:55;;;;;;;5.65;2.65;;;;;;;;;;5036675;28;20033;-77
2022/02/15 12:22:21;;;;;;;4.97;2.40;;;;;;;;;;5036649;28;20057;-76
2022/02/15 12:24:54;;;;;;;4.32;2.20;;;;;;;;;;5034729;28;20071;-76
2022/02/15 12:27:19;;;;;;;;;;;;;;;;;;5035400;28;20041;-77
2022/02/15 12:29:51;;;;;;;5.45;2.50;;;;;;;;;;5051575;28;19913;-76
2022/02/15 12:32:30;;;;;;;3.88;2.50;;;;;;;;;;5035599;28;20040;-76
2022/02/15 12:34:55;;;;;;;3.35;2.05;;;;;;;;;;5034364;28;20051;-76
2022/02/15 12:37:25;;;;;;;4.57;2.25;;;;;;;;;;5034949;28;20037;-76
2022/02/15 12:39:57;;;;;;;4.82;2.05;;;;;;;;;;5036668;28;20052;-76
2022/02/15 12:42:29;;;;;;;5.65;2.40;;;;;;;;;;5036465;28;20037;-76
2022/02/15 12:44:59;;;;;;;3.40;1.60;;;;;;;;;;5037373;28;20167;-76
2022/02/15 12:47:28;;;;;;;4.63;1.83;;;;;;;;;;5052858;28;20033;-76
2022/02/15 12:49:54;;;;;;;4.10;1.75;;;;;;;;;;5035151;28;20041;-76
2022/02/15 12:52:21;;;;;;;5.93;2.15;;;;;;;;;;5036324;28;20411;-76
2022/02/15 12:54:51;;;;;;;3.95;1.83;;;;;;;;;;5036337;28;20033;-76
2022/02/15 12:57:18;;;;;;;3.40;1.45;;;;;;;;;;5036200;28;20167;-76
2022/02/15 12:59:43;;;;;;;3.47;1.60;;;;;;;;;;5039548;28;20040;-76
2022/02/15 13:02:15;;;;;;;4.10;1.60;;;;;;;;;;5023256;28;20131;-76
2022/02/15 13:04:48;;;;;;;4.03;2.10;;;;;;;;;;5039995;28;20036;-76
2022/02/15 13:07:15;;;;;;;7.93;4.40;;;;;;;;;;5039710;28;20032;-76
2022/02/15 13:09:48;;;;;;;11.18;6.70;;;;;;;;;;5038992;28;20032;-76
2022/02/15 13:12:22;;;;;;;14.02;8.55;;;;;;;;;;5056141;28;20044;-76
2022/02/15 13:14:54;;;;;;;17.65;12.35;;;;;;;;;;5039937;28;20521;-76
2022/02/15 13:17:21;;;;;;;26.48;16.45;;;;;;;;;;5019646;28;20025;-76
2022/02/15 13:19:46;;;;;;;22.58;15.90;;;;;;;;;;5019101;28;20044;-76
2022/02/15 13:22:13;;;;;;;24.63;16.13;;;;;;;;;;5019320;28;20406;-77
2022/02/15 13:24:52;;;;;;;21.85;15.90;;;;;;;;;;5019291;28;20548;-76
2022/02/15 13:27:33;;;;;;;22.23;16.55;;;;;;;;;;5036021;28;20029;-76
2022/02/15 13:30:00;;;;;;;23.88;15.80;;;;;;;;;;5020229;28;20065;-76
2022/02/15 13:32:33;;;;;;;24.17;15.68;;;;;;;;;;5003095;28;20086;-76
2022/02/15 13:34:59;;;;;;;22.88;15.13;;;;;;;;;;5035478;28;20033;-76
2022/02/15 13:37:39;;;;;;;20.08;13.98;;;;;;;;;;5018751;28;20082;-76
2022/02/15 13:40:07;;;;;;;19.42;13.88;;;;;;;;;;5019850;28;20560;-76
2022/02/15 13:42:32;;;;;;;21.95;14.98;;;;;;;;;;5002987;28;20119;-76
2022/02/15 13:44:58;;;;;;;20.65;13.82;;;;;;;;;;5002630;28;20363;-76
2022/02/15 13:47:24;;;;;;;19.80;13.13;;;;;;;;;;5018673;28;20048;-76
2022/02/15 13:49:49;;;;;;;19.38;12.60;;;;;;;;;;5035107;28;20029;-76
2022/02/15 13:52:15;;;;;;;20.23;13.75;;;;;;;;;;5018727;28;20454;-76
2022/02/15 13:54:47;;;;;;;19.15;12.85;;;;;;;;;;5002391;28;20029;-76
2022/02/15 13:57:13;;;;;;;18.25;12.65;;;;;;;;;;5019477;28;20507;-76
2022/02/15 13:59:38;;;;;;;18.35;13.00;;;;;;;;;;5049965;28;20036;-75
2022/02/15 14:02:04;;;;;;;23.42;14.68;;;;;;;;;;5054885;28;20078;-75
2022/02/15 14:04:29;;;;;;;29.92;20.23;;;;;;;;;;5038110;28;20064;-76
2022/02/15 14:07:00;;;;;;;31.52;22.27;;;;;;;;;;5038318;28;20067;-76
2022/02/15 14:09:25;;;;;;;29.13;21.13;;;;;;;;;;5021823;28;20466;-76
2022/02/15 14:11:51;;;;;;;32.63;21.90;;;;;;;;;;5037866;28;20036;-76
2022/02/15 14:14:16;;;;;;;32.40;22.75;;;;;;;;;;5037854;28;20160;-76
2022/02/15 14:16:42;;;;;;;34.45;21.08;;;;;;;;;;5029278;28;20040;-76
2022/02/15 14:19:08;;;;;;;29.48;20.13;;;;;;;;;;5052232;28;20043;-76
2022/02/15 14:21:37;;;;;;;32.40;20.52;;;;;;;;;;5001978;28;20415;-76
2022/02/15 14:24:06;;;;;;;28.73;19.63;;;;;;;;;;5034990;28;20509;-76
2022/02/15 14:26:33;;;;;;;27.00;18.65;;;;;;;;;;5018120;28;20090;-76
2022/02/15 14:28:59;;;;;;;25.08;18.25;;;;;;;;;;5018195;28;20474;-75
2022/02/15 14:31:24;;;;;;;28.33;19.33;;;;;;;;;;5001908;28;20112;-76
2022/02/15 14:33:50;;;;;;;25.48;18.15;;;;;;;;;;5001421;28;20403;-75
2022/02/15 14:36:15;;;;;;;24.08;16.88;;;;;;;;;;5017789;28;20403;-76